Terminal Aerodrome Forecast
Issued by NWS Flagstaff, AZ

Home | Current Version | Previous Version | Text Only | Print | Product List | Glossary On
Versions: 1 2 3 4 5 6 7 8 9 10 11 12 13 14 15 16 17 18 19 20 21 22 23 24 25 26 27
000
FTUS45 KFGZ 051606 AAB
TAFFLG
TAF AMD
KFLG 051606Z 0516/0612 27007KT P6SM BKN015 OVC020
     FM051800 27010G15KT P6SM BKN020 BKN030
      TEMPO 0521/0601 4SM -TSRA BR OVC020CB
     FM060200 VRB04KT P6SM SCT020 BKN030=

USA.gov is the U.S. government's official web portal to all federal, state and local government web resources and services.